createdAt,value
2024-02-02T00:00:13.175Z,2.10
2024-02-02T00:01:13.147Z,2.10
2024-02-02T00:02:13.119Z,2.10
2024-02-02T00:03:13.190Z,2.20
2024-02-02T00:04:13.123Z,2.40
2024-02-02T00:05:13.104Z,2.20
2024-02-02T00:06:13.086Z,2.20
2024-02-02T00:07:13.139Z,2.20
2024-02-02T00:08:13.031Z,2.30
2024-02-02T00:09:13.042Z,2.30
2024-02-02T00:10:13.013Z,2.40
2024-02-02T00:11:13.009Z,2.60
2024-02-02T00:12:13.085Z,2.40
2024-02-02T00:13:12.988Z,2.30
2024-02-02T00:14:12.943Z,2.20
2024-02-02T00:15:12.981Z,2.60
2024-02-02T00:16:12.963Z,2.30
2024-02-02T00:17:13.006Z,2.50
2024-02-02T00:18:12.984Z,2.60
2024-02-02T00:19:13.036Z,2.40
2024-02-02T00:20:12.943Z,2.30
2024-02-02T00:21:12.914Z,2.90
2024-02-02T00:22:12.916Z,2.70
2024-02-02T00:23:12.893Z,2.60
2024-02-02T00:24:12.907Z,2.40
2024-02-02T00:25:12.850Z,2.50
2024-02-02T00:26:12.836Z,2.60
2024-02-02T00:27:12.860Z,2.60
2024-02-02T00:28:12.837Z,2.80
2024-02-02T00:29:12.859Z,2.40
2024-02-02T00:30:12.875Z,2.60
2024-02-02T00:31:12.808Z,3.00
2024-02-02T00:32:12.781Z,2.70
2024-02-02T00:33:12.931Z,2.50
2024-02-02T00:34:12.916Z,2.60
2024-02-02T00:35:12.777Z,2.90
2024-02-02T00:36:12.754Z,2.60
2024-02-02T00:37:12.717Z,2.80
2024-02-02T00:38:12.702Z,2.40
2024-02-02T00:39:12.750Z,2.70
2024-02-02T00:40:12.699Z,2.50
2024-02-02T00:41:12.732Z,2.50
2024-02-02T00:42:12.723Z,2.40
2024-02-02T00:43:12.696Z,2.40
2024-02-02T00:44:12.670Z,2.80
2024-02-02T00:45:12.772Z,3.00
2024-02-02T00:46:12.661Z,2.60
2024-02-02T00:47:12.650Z,2.70
2024-02-02T00:48:12.706Z,2.60
2024-02-02T00:49:12.678Z,2.80
2024-02-02T00:50:12.755Z,2.70
2024-02-02T00:51:12.714Z,2.70
2024-02-02T00:52:12.563Z,2.90
2024-02-02T00:53:12.605Z,2.70
2024-02-02T00:54:12.609Z,2.60
2024-02-02T00:55:12.555Z,2.70
2024-02-02T00:56:12.593Z,2.70
2024-02-02T00:57:12.533Z,2.50
2024-02-02T00:58:20.108Z,2.60
2024-02-02T00:59:12.499Z,2.50
2024-02-02T01:00:12.536Z,2.50
2024-02-02T01:01:12.529Z,2.70
2024-02-02T01:02:12.484Z,2.70
2024-02-02T01:03:12.500Z,2.40
2024-02-02T01:04:12.488Z,2.30
2024-02-02T01:05:12.500Z,2.50
2024-02-02T01:06:12.518Z,2.60
2024-02-02T01:07:12.448Z,2.10
2024-02-02T01:08:12.396Z,2.60
2024-02-02T01:09:12.509Z,2.80
2024-02-02T01:10:12.399Z,2.60
2024-02-02T01:11:12.347Z,2.40
2024-02-02T01:12:12.383Z,2.60
2024-02-02T01:13:12.336Z,2.80
2024-02-02T01:14:12.313Z,3.00
2024-02-02T01:15:12.394Z,2.90
2024-02-02T01:16:12.333Z,3.50
2024-02-02T01:17:12.297Z,3.20
2024-02-02T01:18:12.375Z,3.40
2024-02-02T01:19:12.393Z,3.30
2024-02-02T01:20:12.331Z,3.00
2024-02-02T01:21:12.316Z,3.00
2024-02-02T01:22:12.282Z,3.30
2024-02-02T01:23:12.251Z,3.60
2024-02-02T01:24:12.248Z,3.90
2024-02-02T01:25:12.222Z,3.40
2024-02-02T01:26:12.198Z,3.50
2024-02-02T01:27:12.270Z,3.70
2024-02-02T01:28:12.228Z,3.30
2024-02-02T01:29:12.180Z,3.60
2024-02-02T01:30:12.152Z,3.60
2024-02-02T01:31:12.167Z,3.50
2024-02-02T01:32:12.155Z,3.60
2024-02-02T01:33:12.244Z,3.60
2024-02-02T01:34:12.299Z,3.80
2024-02-02T01:35:12.141Z,4.30
2024-02-02T01:36:12.336Z,4.20
2024-02-02T01:37:12.090Z,3.70
2024-02-02T01:38:12.076Z,4.10
2024-02-02T01:39:12.071Z,4.30
2024-02-02T01:40:12.096Z,3.80
2024-02-02T01:41:12.037Z,3.80
2024-02-02T01:42:12.090Z,3.90
2024-02-02T01:43:12.049Z,3.80
2024-02-02T01:44:12.047Z,4.10
2024-02-02T01:45:12.028Z,4.00
2024-02-02T01:46:12.097Z,4.10
2024-02-02T01:47:12.044Z,3.90
2024-02-02T01:48:12.173Z,4.00
2024-02-02T01:49:12.052Z,3.90
2024-02-02T01:50:11.951Z,4.00
2024-02-02T01:51:11.989Z,4.00
2024-02-02T01:52:12.046Z,4.30
2024-02-02T01:53:11.915Z,3.80
2024-02-02T01:54:11.942Z,4.00
2024-02-02T01:55:11.892Z,3.80
2024-02-02T01:56:11.868Z,4.10
2024-02-02T01:57:11.925Z,4.00
2024-02-02T01:58:11.888Z,4.50
2024-02-02T01:59:11.832Z,4.30
2024-02-02T02:00:11.863Z,4.20
2024-02-02T02:01:11.847Z,4.80
2024-02-02T02:02:11.807Z,4.20
2024-02-02T02:03:11.893Z,4.20
2024-02-02T02:04:11.999Z,4.30
2024-02-02T02:05:11.844Z,4.40
2024-02-02T02:06:11.817Z,4.30
2024-02-02T02:07:11.770Z,4.70
2024-02-02T02:08:11.747Z,4.70
2024-02-02T02:09:11.779Z,4.40
2024-02-02T02:10:11.743Z,4.50
2024-02-02T02:11:11.736Z,4.40
2024-02-02T02:12:11.772Z,4.60
2024-02-02T02:13:11.701Z,4.60
2024-02-02T02:14:11.699Z,4.60
2024-02-02T02:15:11.854Z,4.60
2024-02-02T02:16:11.667Z,4.90
2024-02-02T02:17:11.642Z,4.50
2024-02-02T02:18:11.774Z,4.60
2024-02-02T02:19:11.746Z,4.70
2024-02-02T02:20:11.792Z,5.20
2024-02-02T02:21:11.648Z,4.90
2024-02-02T02:22:11.623Z,4.60
2024-02-02T02:23:11.590Z,4.60
2024-02-02T02:24:11.640Z,4.40
2024-02-02T02:25:11.592Z,4.40
2024-02-02T02:26:11.565Z,4.60
2024-02-02T02:27:11.556Z,4.90
2024-02-02T02:28:11.568Z,4.70
2024-02-02T02:29:11.524Z,4.70
2024-02-02T02:30:11.542Z,4.70
2024-02-02T02:31:11.506Z,4.90
2024-02-02T02:32:11.563Z,5.10
2024-02-02T02:33:11.575Z,4.80
2024-02-02T02:34:11.593Z,4.80
2024-02-02T02:35:11.469Z,4.90
2024-02-02T02:36:11.489Z,5.00
2024-02-02T02:37:11.455Z,5.00
2024-02-02T02:38:11.441Z,4.70
2024-02-02T02:39:11.444Z,4.80
2024-02-02T02:40:11.447Z,5.20
2024-02-02T02:41:11.418Z,4.90
2024-02-02T02:42:11.525Z,4.50
2024-02-02T02:43:11.430Z,4.90
2024-02-02T02:44:11.392Z,4.70
2024-02-02T02:45:11.420Z,5.20
2024-02-02T02:46:11.380Z,5.30
2024-02-02T02:47:11.376Z,4.80
2024-02-02T02:48:11.435Z,4.70
2024-02-02T02:49:11.493Z,4.90
2024-02-02T02:50:11.308Z,4.70
2024-02-02T02:51:11.301Z,5.10
2024-02-02T02:52:11.362Z,4.90
2024-02-02T02:53:11.280Z,5.00
2024-02-02T02:54:11.307Z,4.90
2024-02-02T02:55:11.284Z,4.90
2024-02-02T02:56:11.286Z,4.60
2024-02-02T02:57:11.335Z,5.20
2024-02-02T02:58:11.257Z,5.10
2024-02-02T02:59:11.234Z,5.00
2024-02-02T03:00:11.290Z,5.00
2024-02-02T03:01:11.277Z,4.90
2024-02-02T03:02:11.217Z,5.40
2024-02-02T03:03:11.257Z,4.90
2024-02-02T03:04:11.228Z,5.20
2024-02-02T03:05:11.210Z,5.50
2024-02-02T03:06:11.240Z,5.30
2024-02-02T03:07:11.284Z,5.10
2024-02-02T03:08:11.134Z,5.40
2024-02-02T03:09:11.186Z,5.30
2024-02-02T03:10:11.148Z,4.80
2024-02-02T03:11:11.131Z,4.70
2024-02-02T03:12:11.191Z,4.90
2024-02-02T03:13:11.124Z,5.10
2024-02-02T03:14:11.083Z,5.50
2024-02-02T03:15:11.085Z,5.40
2024-02-02T03:16:11.074Z,5.10
2024-02-02T03:17:11.058Z,5.40
2024-02-02T03:18:11.103Z,5.00
2024-02-02T03:19:11.059Z,5.00
2024-02-02T03:20:11.044Z,4.50
2024-02-02T03:21:11.036Z,5.30
2024-02-02T03:22:11.043Z,5.40
2024-02-02T03:23:10.980Z,5.00
2024-02-02T03:24:11.005Z,4.90
2024-02-02T03:25:10.967Z,4.80
2024-02-02T03:26:10.954Z,5.10
2024-02-02T03:27:10.956Z,5.20
2024-02-02T03:28:11.033Z,4.90
2024-02-02T03:29:10.926Z,4.80
2024-02-02T03:30:10.991Z,4.60
2024-02-02T03:31:10.900Z,5.20
2024-02-02T03:32:10.889Z,5.10
2024-02-02T03:33:10.938Z,4.80
2024-02-02T03:34:10.951Z,5.40
2024-02-02T03:35:10.849Z,5.00
2024-02-02T03:36:10.945Z,5.00
2024-02-02T03:37:10.826Z,4.70
2024-02-02T03:38:10.855Z,5.60
2024-02-02T03:39:10.833Z,5.00
2024-02-02T03:40:10.821Z,5.10
2024-02-02T03:41:10.802Z,4.80
2024-02-02T03:42:10.833Z,5.20
2024-02-02T03:43:10.771Z,4.90
2024-02-02T03:44:10.786Z,4.80
2024-02-02T03:45:10.798Z,5.40
2024-02-02T03:46:10.764Z,4.90
2024-02-02T03:47:10.725Z,4.80
2024-02-02T03:48:10.876Z,5.50
2024-02-02T03:49:10.926Z,5.10
2024-02-02T03:50:10.862Z,4.90
2024-02-02T03:51:10.748Z,5.00
2024-02-02T03:52:10.799Z,4.70
2024-02-02T03:53:10.679Z,5.20
2024-02-02T03:54:10.683Z,4.50
2024-02-02T03:55:10.655Z,5.10
2024-02-02T03:56:10.623Z,4.80
2024-02-02T03:57:10.642Z,4.90
2024-02-02T03:58:10.641Z,5.30
2024-02-02T03:59:10.608Z,4.90
2024-02-02T04:00:10.664Z,5.10
2024-02-02T04:01:10.614Z,4.80
2024-02-02T04:02:10.582Z,4.70
2024-02-02T04:03:10.648Z,5.00
2024-02-02T04:04:10.659Z,5.70
2024-02-02T04:05:10.611Z,5.40
2024-02-02T04:06:10.567Z,4.70
2024-02-02T04:07:10.511Z,4.50
2024-02-02T04:08:10.524Z,4.70
2024-02-02T04:09:10.503Z,4.70
2024-02-02T04:10:10.531Z,5.20
2024-02-02T04:11:10.513Z,5.40
2024-02-02T04:12:10.546Z,5.10
2024-02-02T04:13:10.464Z,5.10
2024-02-02T04:14:10.454Z,5.10
2024-02-02T04:15:10.470Z,4.70
2024-02-02T04:16:10.473Z,5.00
2024-02-02T04:17:10.456Z,4.80
2024-02-02T04:18:10.557Z,5.20
2024-02-02T04:19:10.438Z,5.30
2024-02-02T04:20:10.382Z,5.00
2024-02-02T04:21:10.424Z,5.10
2024-02-02T04:22:10.414Z,5.30
2024-02-02T04:23:10.370Z,5.30
2024-02-02T04:24:10.394Z,5.20
2024-02-02T04:25:10.315Z,5.00
2024-02-02T04:26:10.338Z,5.00
2024-02-02T04:27:10.364Z,5.00
2024-02-02T04:28:10.345Z,5.40
2024-02-02T04:29:10.309Z,5.40
2024-02-02T04:30:10.370Z,5.60
2024-02-02T04:31:10.278Z,5.50
2024-02-02T04:32:10.268Z,5.60
2024-02-02T04:33:10.358Z,6.10
2024-02-02T04:34:10.378Z,5.90
2024-02-02T04:35:10.251Z,5.60
2024-02-02T04:36:10.263Z,5.80
2024-02-02T04:37:10.208Z,5.60
2024-02-02T04:38:10.181Z,5.90
2024-02-02T04:39:10.334Z,5.70
2024-02-02T04:40:10.189Z,6.10
2024-02-02T04:41:10.145Z,6.80
2024-02-02T04:42:10.189Z,5.60
2024-02-02T04:43:10.187Z,5.90
2024-02-02T04:44:10.133Z,5.80
2024-02-02T04:45:10.153Z,6.00
2024-02-02T04:46:10.132Z,6.50
2024-02-02T04:47:10.108Z,6.40
2024-02-02T04:48:10.200Z,6.00
2024-02-02T04:49:10.267Z,5.90
2024-02-02T04:50:10.087Z,6.30
2024-02-02T04:51:10.101Z,6.00
2024-02-02T04:52:10.075Z,6.20
2024-02-02T04:53:10.046Z,6.10
2024-02-02T04:54:10.057Z,6.00
2024-02-02T04:55:10.038Z,6.10
2024-02-02T04:56:10.020Z,6.10
2024-02-02T04:57:09.997Z,6.20
2024-02-02T04:58:09.996Z,6.60
2024-02-02T04:59:10.012Z,6.60
2024-02-02T05:00:10.140Z,6.40
2024-02-02T05:01:09.982Z,6.80
2024-02-02T05:02:10.115Z,6.50
2024-02-02T05:03:09.946Z,6.60
2024-02-02T05:04:09.956Z,6.90
2024-02-02T05:05:09.909Z,7.00
2024-02-02T05:06:09.921Z,7.30
2024-02-02T05:07:09.914Z,7.00
2024-02-02T05:08:09.964Z,7.40
2024-02-02T05:09:09.956Z,7.70
2024-02-02T05:10:09.870Z,7.60
2024-02-02T05:11:09.839Z,7.00
2024-02-02T05:12:09.864Z,7.60
2024-02-02T05:13:09.887Z,6.80
2024-02-02T05:14:09.836Z,7.00
2024-02-02T05:15:09.912Z,6.90
2024-02-02T05:16:11.445Z,7.60
2024-02-02T05:17:09.820Z,7.40
2024-02-02T05:18:09.915Z,6.50
2024-02-02T05:19:09.878Z,6.40
2024-02-02T05:20:09.787Z,6.90
2024-02-02T05:21:09.749Z,6.70
2024-02-02T05:22:09.733Z,7.00
2024-02-02T05:23:09.734Z,6.60
2024-02-02T05:24:21.989Z,6.60
2024-02-02T05:25:10.836Z,6.60
2024-02-02T05:26:09.683Z,6.30
2024-02-02T05:27:09.722Z,6.20
2024-02-02T05:28:09.681Z,6.10
2024-02-02T05:29:09.673Z,6.70
2024-02-02T05:30:09.769Z,6.50
2024-02-02T05:31:09.632Z,6.20
2024-02-02T05:32:09.646Z,6.30
2024-02-02T05:33:09.762Z,6.60
2024-02-02T05:34:09.844Z,6.20
2024-02-02T05:35:09.648Z,6.40
2024-02-02T05:36:09.615Z,6.10
2024-02-02T05:37:09.586Z,6.20
2024-02-02T05:38:09.576Z,6.30
2024-02-02T05:39:09.599Z,6.00
2024-02-02T05:40:09.585Z,6.10
2024-02-02T05:41:09.547Z,6.50
2024-02-02T05:42:09.569Z,6.10
2024-02-02T05:43:09.538Z,6.80
2024-02-02T05:44:09.606Z,5.90
2024-02-02T05:45:09.601Z,6.50
2024-02-02T05:46:09.553Z,6.30
2024-02-02T05:47:09.471Z,6.40
2024-02-02T05:48:09.543Z,5.90
2024-02-02T05:49:09.494Z,6.10
2024-02-02T05:50:09.533Z,6.00
2024-02-02T05:51:09.533Z,6.40
2024-02-02T05:52:09.463Z,6.40
2024-02-02T05:53:09.437Z,6.10
2024-02-02T05:54:09.396Z,6.10
2024-02-02T05:55:09.401Z,6.60
2024-02-02T05:56:09.398Z,6.20
2024-02-02T05:57:09.410Z,6.10
2024-02-02T05:58:09.372Z,6.60
2024-02-02T05:59:09.352Z,6.10
2024-02-02T06:00:09.356Z,6.10
2024-02-02T06:01:09.380Z,6.00
2024-02-02T06:02:09.340Z,6.70
2024-02-02T06:03:09.392Z,6.30
2024-02-02T06:04:09.348Z,6.30
2024-02-02T06:05:09.281Z,6.00
2024-02-02T06:06:09.351Z,6.00
2024-02-02T06:07:09.359Z,6.30
2024-02-02T06:08:09.266Z,6.30
2024-02-02T06:09:09.301Z,5.80
2024-02-02T06:10:09.236Z,5.80
2024-02-02T06:11:09.213Z,6.10
2024-02-02T06:12:09.254Z,6.40
2024-02-02T06:13:09.240Z,6.30
2024-02-02T06:14:09.183Z,6.60
2024-02-02T06:15:09.188Z,6.40
2024-02-02T06:16:09.165Z,6.50
2024-02-02T06:17:09.157Z,6.10
2024-02-02T06:18:09.261Z,6.40
2024-02-02T06:19:09.187Z,6.40
2024-02-02T06:20:09.140Z,6.20
2024-02-02T06:21:09.152Z,6.40
2024-02-02T06:22:09.181Z,5.50
2024-02-02T06:23:09.139Z,6.50
2024-02-02T06:24:09.229Z,6.00
2024-02-02T06:25:09.073Z,6.00
2024-02-02T06:26:09.085Z,6.20
2024-02-02T06:27:09.098Z,5.70
2024-02-02T06:28:09.041Z,6.20
2024-02-02T06:29:09.061Z,6.10
2024-02-02T06:30:09.104Z,6.20
2024-02-02T06:31:09.001Z,6.10
2024-02-02T06:32:09.045Z,6.00
2024-02-02T06:33:09.113Z,6.40
2024-02-02T06:34:09.096Z,6.10
2024-02-02T06:35:09.000Z,6.50
2024-02-02T06:36:09.017Z,6.10
2024-02-02T06:37:08.947Z,6.10
2024-02-02T06:38:08.944Z,5.90
2024-02-02T06:39:08.958Z,5.90
2024-02-02T06:40:08.916Z,6.20
2024-02-02T06:41:08.894Z,6.70
2024-02-02T06:42:08.977Z,6.60
2024-02-02T06:43:08.883Z,6.40
2024-02-02T06:44:08.863Z,6.30
2024-02-02T06:45:08.910Z,6.00
2024-02-02T06:46:08.848Z,6.10
2024-02-02T06:47:08.895Z,6.30
2024-02-02T06:48:08.908Z,5.60
2024-02-02T06:49:08.938Z,6.40
2024-02-02T06:50:08.871Z,6.20
2024-02-02T06:51:08.881Z,5.80
2024-02-02T06:52:08.800Z,5.80
2024-02-02T06:53:08.785Z,5.80
2024-02-02T06:54:08.790Z,6.10
2024-02-02T06:55:08.758Z,6.10
2024-02-02T06:56:08.787Z,6.50
2024-02-02T06:57:08.755Z,6.60
2024-02-02T06:58:08.714Z,6.00
2024-02-02T06:59:08.732Z,5.60
2024-02-02T07:00:08.765Z,6.00
2024-02-02T07:01:08.834Z,5.80
2024-02-02T07:02:08.735Z,6.00
2024-02-02T07:03:08.825Z,5.90
2024-02-02T07:04:08.789Z,5.90
2024-02-02T07:05:08.657Z,5.70
2024-02-02T07:06:08.758Z,6.20
2024-02-02T07:07:08.758Z,6.50
2024-02-02T07:08:08.614Z,6.00
2024-02-02T07:09:08.637Z,6.30
2024-02-02T07:10:08.601Z,5.40
2024-02-02T07:11:08.605Z,5.80
2024-02-02T07:12:08.671Z,6.20
2024-02-02T07:13:08.621Z,6.20
2024-02-02T07:14:08.556Z,5.90
2024-02-02T07:15:08.639Z,5.80
2024-02-02T07:16:08.560Z,5.80
2024-02-02T07:17:08.563Z,5.60
2024-02-02T07:18:08.622Z,5.90
2024-02-02T07:19:08.619Z,6.00
2024-02-02T07:20:08.592Z,5.50
2024-02-02T07:21:08.815Z,5.90
2024-02-02T07:22:08.503Z,5.40
2024-02-02T07:23:08.523Z,6.00
2024-02-02T07:24:08.492Z,5.80
2024-02-02T07:25:08.470Z,5.40
2024-02-02T07:26:08.491Z,5.70
2024-02-02T07:27:08.437Z,5.30
2024-02-02T07:28:08.426Z,5.50
2024-02-02T07:29:08.460Z,5.60
2024-02-02T07:30:08.464Z,5.50
2024-02-02T07:31:08.396Z,5.50
2024-02-02T07:32:08.416Z,5.70
2024-02-02T07:33:08.448Z,5.80
2024-02-02T07:34:08.655Z,5.60
2024-02-02T07:35:08.373Z,5.70
2024-02-02T07:36:08.471Z,5.70
2024-02-02T07:37:08.325Z,5.90
2024-02-02T07:38:08.335Z,5.90
2024-02-02T07:39:08.314Z,5.10
2024-02-02T07:40:08.310Z,5.70
2024-02-02T07:41:08.291Z,5.80
2024-02-02T07:42:08.308Z,5.80
2024-02-02T07:43:08.324Z,6.20
2024-02-02T07:44:08.252Z,5.80
2024-02-02T07:45:08.310Z,5.80
2024-02-02T07:46:11.376Z,6.00
2024-02-02T07:47:08.237Z,5.80
2024-02-02T07:48:08.341Z,6.00
2024-02-02T07:49:08.373Z,5.90
2024-02-02T07:50:08.239Z,5.70
2024-02-02T07:51:08.278Z,5.70
2024-02-02T07:52:08.180Z,5.30
2024-02-02T07:53:08.177Z,6.10
2024-02-02T07:54:08.172Z,5.70
2024-02-02T07:55:08.167Z,5.80
2024-02-02T07:56:08.142Z,6.20
2024-02-02T07:57:08.188Z,5.90
2024-02-02T07:58:08.110Z,5.80
2024-02-02T07:59:08.098Z,5.50
2024-02-02T08:00:08.137Z,5.70
2024-02-02T08:01:08.220Z,6.10
2024-02-02T08:02:08.085Z,6.10
2024-02-02T08:03:10.475Z,5.10
2024-02-02T08:04:08.233Z,5.90
2024-02-02T08:05:08.035Z,6.00
2024-02-02T08:06:08.233Z,5.70
2024-02-02T08:07:08.198Z,5.40
2024-02-02T08:08:08.009Z,6.00
2024-02-02T08:09:08.035Z,5.60
2024-02-02T08:10:07.983Z,6.00
2024-02-02T08:11:07.974Z,5.60
2024-02-02T08:12:08.021Z,5.50
2024-02-02T08:13:08.937Z,6.10
2024-02-02T08:14:07.955Z,5.60
2024-02-02T08:15:08.024Z,5.50
2024-02-02T08:16:07.919Z,5.50
2024-02-02T08:17:07.950Z,5.50
2024-02-02T08:18:08.048Z,5.10
2024-02-02T08:19:08.044Z,5.40
2024-02-02T08:20:07.937Z,5.40
2024-02-02T08:21:08.495Z,5.00
2024-02-02T08:22:07.869Z,5.40
2024-02-02T08:23:07.897Z,5.50
2024-02-02T08:24:07.846Z,5.40
2024-02-02T08:25:07.945Z,5.30
2024-02-02T08:26:07.863Z,5.40
2024-02-02T08:27:07.915Z,4.60
2024-02-02T08:28:07.825Z,4.90
2024-02-02T08:29:07.857Z,5.10
2024-02-02T08:30:07.829Z,5.10
2024-02-02T08:31:07.777Z,5.60
2024-02-02T08:32:07.772Z,4.90
2024-02-02T08:33:07.885Z,4.90
2024-02-02T08:34:07.856Z,5.40
2024-02-02T08:35:07.735Z,4.80
2024-02-02T08:36:07.763Z,5.20
2024-02-02T08:37:07.708Z,5.30
2024-02-02T08:38:07.720Z,5.30
2024-02-02T08:39:07.784Z,5.10
2024-02-02T08:40:07.669Z,5.20
2024-02-02T08:41:07.694Z,4.80
2024-02-02T08:42:08.382Z,5.20
2024-02-02T08:43:07.640Z,5.10
2024-02-02T08:44:07.637Z,5.10
2024-02-02T08:45:07.664Z,5.00
2024-02-02T08:46:07.752Z,5.00
2024-02-02T08:47:07.619Z,5.30
2024-02-02T08:48:07.668Z,5.60
2024-02-02T08:49:07.818Z,5.20
2024-02-02T08:50:07.667Z,5.20
2024-02-02T08:51:07.608Z,5.50
2024-02-02T08:52:07.557Z,4.70
2024-02-02T08:53:07.545Z,4.80
2024-02-02T08:54:07.548Z,5.10
2024-02-02T08:55:07.539Z,5.30
2024-02-02T08:56:07.528Z,5.00
2024-02-02T08:57:07.530Z,4.90
2024-02-02T08:58:07.498Z,5.30
2024-02-02T08:59:07.471Z,5.00
2024-02-02T09:00:07.503Z,4.90
2024-02-02T09:01:07.506Z,4.50
2024-02-02T09:02:07.450Z,5.20
2024-02-02T09:03:07.706Z,3.90
2024-02-02T09:04:07.483Z,4.50
2024-02-02T09:05:07.406Z,4.60
2024-02-02T09:06:07.476Z,4.30
2024-02-02T09:07:07.497Z,4.50
2024-02-02T09:08:07.370Z,4.60
2024-02-02T09:09:07.469Z,4.30
2024-02-02T09:10:07.523Z,4.30
2024-02-02T09:11:07.362Z,4.00
2024-02-02T09:12:07.376Z,4.10
2024-02-02T09:13:07.342Z,4.00
2024-02-02T09:14:07.314Z,4.10
2024-02-02T09:15:07.391Z,4.00
2024-02-02T09:16:07.296Z,4.20
2024-02-02T09:17:07.339Z,3.60
2024-02-02T09:18:07.387Z,4.10
2024-02-02T09:19:07.381Z,4.00
2024-02-02T09:20:07.375Z,3.50
2024-02-02T09:21:07.275Z,4.00
2024-02-02T09:22:07.265Z,4.10
2024-02-02T09:23:07.257Z,3.80
2024-02-02T09:24:07.279Z,3.90
2024-02-02T09:25:07.198Z,4.30
2024-02-02T09:26:07.196Z,4.10
2024-02-02T09:27:07.217Z,4.40
2024-02-02T09:28:07.218Z,4.30
2024-02-02T09:29:07.170Z,4.20
2024-02-02T09:30:07.233Z,4.70
2024-02-02T09:31:07.143Z,5.00
2024-02-02T09:32:07.130Z,5.20
2024-02-02T09:33:07.328Z,5.20
2024-02-02T09:34:07.290Z,5.00
2024-02-02T09:35:07.130Z,5.20
2024-02-02T09:36:07.120Z,5.70
2024-02-02T09:37:07.096Z,6.50
2024-02-02T09:38:07.066Z,7.40
2024-02-02T09:39:07.156Z,6.10
2024-02-02T09:40:07.073Z,5.20
2024-02-02T09:41:07.085Z,4.80
2024-02-02T09:42:07.106Z,4.80
2024-02-02T09:43:07.044Z,4.80
2024-02-02T09:44:07.173Z,4.80
2024-02-02T09:45:07.020Z,4.50
2024-02-02T09:46:06.994Z,4.90
2024-02-02T09:47:06.975Z,4.40
2024-02-02T09:48:07.184Z,4.70
2024-02-02T09:49:07.115Z,4.30
2024-02-02T09:50:06.991Z,3.90
2024-02-02T09:51:06.988Z,4.30
2024-02-02T09:52:06.962Z,3.90
2024-02-02T09:53:06.938Z,4.40
2024-02-02T09:54:06.952Z,4.10
2024-02-02T09:55:06.912Z,4.30
2024-02-02T09:56:06.878Z,4.20
2024-02-02T09:57:06.982Z,4.30
2024-02-02T09:58:06.852Z,3.80
2024-02-02T09:59:06.843Z,4.00
2024-02-02T10:00:06.919Z,3.70
2024-02-02T10:01:06.981Z,3.70
2024-02-02T10:02:06.822Z,3.50
2024-02-02T10:03:06.824Z,3.90
2024-02-02T10:04:09.796Z,3.90
2024-02-02T10:05:07.917Z,3.70
2024-02-02T10:06:06.928Z,4.10
2024-02-02T10:07:07.119Z,3.60
2024-02-02T10:08:06.777Z,3.70
2024-02-02T10:09:06.834Z,3.40
2024-02-02T10:10:06.863Z,3.30
2024-02-02T10:11:06.757Z,3.60
2024-02-02T10:12:06.794Z,3.30
2024-02-02T10:13:06.713Z,3.40
2024-02-02T10:14:06.714Z,3.80
2024-02-02T10:15:06.786Z,3.60
2024-02-02T10:16:06.694Z,3.20
2024-02-02T10:17:06.738Z,3.60
2024-02-02T10:18:06.719Z,3.70
2024-02-02T10:19:06.881Z,3.60
2024-02-02T10:20:06.653Z,3.80
2024-02-02T10:21:08.011Z,3.70
2024-02-02T10:22:06.651Z,3.80
2024-02-02T10:23:06.639Z,3.80
2024-02-02T10:24:12.079Z,4.30
2024-02-02T10:25:06.615Z,3.50
2024-02-02T10:26:06.597Z,3.60
2024-02-02T10:27:06.627Z,3.60
2024-02-02T10:28:06.677Z,3.40
2024-02-02T10:29:06.547Z,3.40
2024-02-02T10:30:06.638Z,3.40
2024-02-02T10:31:06.605Z,3.20
2024-02-02T10:32:06.522Z,3.20
2024-02-02T10:33:06.721Z,3.10
2024-02-02T10:34:06.612Z,3.20
2024-02-02T10:35:06.495Z,3.10
2024-02-02T10:36:06.534Z,3.10
2024-02-02T10:37:06.488Z,3.10
2024-02-02T10:38:06.462Z,2.80
2024-02-02T10:39:06.508Z,2.80
2024-02-02T10:40:06.456Z,3.00
2024-02-02T10:41:06.462Z,3.00
2024-02-02T10:42:06.515Z,2.60
2024-02-02T10:43:06.421Z,2.80
2024-02-02T10:44:06.458Z,3.10
2024-02-02T10:45:06.432Z,2.60
2024-02-02T10:46:06.379Z,2.50
2024-02-02T10:47:06.360Z,2.80
2024-02-02T10:48:06.481Z,2.50
2024-02-02T10:49:06.485Z,2.60
2024-02-02T10:50:06.535Z,2.70
2024-02-02T10:51:06.347Z,2.10
2024-02-02T10:52:06.309Z,2.60
2024-02-02T10:53:06.291Z,2.70
2024-02-02T10:54:06.309Z,2.30
2024-02-02T10:55:06.342Z,2.40
2024-02-02T10:56:06.274Z,2.60
2024-02-02T10:57:06.322Z,2.70
2024-02-02T10:58:06.273Z,2.60
2024-02-02T10:59:06.254Z,2.70
2024-02-02T11:00:06.238Z,2.60
2024-02-02T11:01:06.347Z,2.40
2024-02-02T11:02:06.232Z,2.40
2024-02-02T11:03:06.374Z,2.30
2024-02-02T11:04:06.279Z,2.50
2024-02-02T11:05:06.180Z,2.60
2024-02-02T11:06:06.233Z,2.80
2024-02-02T11:07:06.258Z,2.60
2024-02-02T11:08:06.151Z,2.60
2024-02-02T11:09:06.160Z,2.30
2024-02-02T11:10:06.142Z,3.00
2024-02-02T11:11:06.155Z,2.60
2024-02-02T11:12:06.135Z,2.60
2024-02-02T11:13:06.079Z,2.60
2024-02-02T11:14:06.094Z,2.50
2024-02-02T11:15:06.117Z,2.50
2024-02-02T11:16:06.047Z,2.50
2024-02-02T11:17:06.081Z,2.60
2024-02-02T11:18:06.216Z,2.50
2024-02-02T11:19:06.207Z,2.40
2024-02-02T11:20:06.017Z,2.60
2024-02-02T11:21:06.047Z,2.50
2024-02-02T11:22:06.062Z,2.60
2024-02-02T11:23:05.982Z,2.60
2024-02-02T11:24:05.985Z,2.50
2024-02-02T11:25:06.012Z,2.50
2024-02-02T11:26:05.986Z,2.20
2024-02-02T11:27:05.974Z,2.50
2024-02-02T11:28:05.957Z,2.30
2024-02-02T11:29:05.904Z,2.20
2024-02-02T11:30:06.043Z,2.20
2024-02-02T11:31:05.979Z,2.70
2024-02-02T11:32:05.881Z,2.30
2024-02-02T11:33:06.060Z,2.70
2024-02-02T11:34:05.926Z,2.40
2024-02-02T11:35:05.948Z,2.60
2024-02-02T11:36:05.886Z,2.50
2024-02-02T11:37:05.836Z,2.60
2024-02-02T11:38:05.858Z,2.50
2024-02-02T11:39:05.869Z,2.40
2024-02-02T11:40:05.797Z,2.50
2024-02-02T11:41:05.822Z,2.60
2024-02-02T11:42:05.834Z,2.40
2024-02-02T11:43:05.765Z,2.40
2024-02-02T11:44:05.807Z,2.60
2024-02-02T11:45:05.801Z,2.50
2024-02-02T11:46:08.585Z,2.40
2024-02-02T11:47:05.751Z,2.30
2024-02-02T11:48:05.904Z,2.40
2024-02-02T11:49:05.894Z,2.70
2024-02-02T11:50:05.908Z,2.50
2024-02-02T11:51:05.717Z,2.50
2024-02-02T11:52:05.686Z,2.30
2024-02-02T11:53:05.662Z,2.50
2024-02-02T11:54:05.710Z,2.40
2024-02-02T11:55:05.658Z,2.20
2024-02-02T11:56:05.724Z,2.30
2024-02-02T11:57:05.680Z,2.30
2024-02-02T11:58:05.807Z,2.20
2024-02-02T11:59:05.624Z,2.60
2024-02-02T12:00:05.640Z,2.10
2024-02-02T12:01:05.592Z,2.30
2024-02-02T12:02:05.605Z,2.40
2024-02-02T12:03:05.610Z,2.30
2024-02-02T12:04:05.559Z,2.40
2024-02-02T12:05:05.565Z,2.30
2024-02-02T12:06:05.628Z,2.30
2024-02-02T12:07:05.590Z,2.50
2024-02-02T12:08:05.494Z,2.60
2024-02-02T12:09:05.590Z,2.50
2024-02-02T12:10:05.525Z,2.40
2024-02-02T12:11:05.546Z,2.10
2024-02-02T12:12:05.497Z,2.10
2024-02-02T12:13:05.483Z,2.20
2024-02-02T12:14:05.432Z,2.60
2024-02-02T12:15:05.465Z,2.30
2024-02-02T12:16:05.468Z,2.40
2024-02-02T12:17:05.442Z,2.30
2024-02-02T12:18:05.467Z,2.20
2024-02-02T12:19:05.509Z,1.90
2024-02-02T12:20:05.490Z,2.10
2024-02-02T12:21:05.417Z,2.10
2024-02-02T12:22:05.414Z,2.50
2024-02-02T12:23:05.359Z,2.10
2024-02-02T12:24:05.536Z,2.10
2024-02-02T12:25:05.355Z,2.40
2024-02-02T12:26:05.318Z,2.10
2024-02-02T12:27:05.417Z,2.10
2024-02-02T12:28:05.330Z,2.20
2024-02-02T12:29:05.329Z,2.00
2024-02-02T12:30:05.331Z,2.00
2024-02-02T12:31:05.279Z,2.30
2024-02-02T12:32:05.276Z,2.10
2024-02-02T12:33:05.327Z,2.50
2024-02-02T12:34:05.472Z,2.00
2024-02-02T12:35:05.484Z,2.20
2024-02-02T12:36:10.064Z,2.10
2024-02-02T12:37:05.238Z,2.40
2024-02-02T12:38:05.289Z,2.00
2024-02-02T12:39:05.221Z,2.10
2024-02-02T12:40:05.174Z,2.50
2024-02-02T12:41:05.167Z,2.20
2024-02-02T12:42:07.231Z,2.00
2024-02-02T12:43:05.165Z,2.20
2024-02-02T12:44:05.189Z,2.20
2024-02-02T12:45:05.169Z,2.20
2024-02-02T12:46:05.116Z,2.10
2024-02-02T12:47:05.142Z,2.40
2024-02-02T12:48:05.209Z,2.10
2024-02-02T12:49:05.259Z,2.30
2024-02-02T12:50:05.198Z,2.00
2024-02-02T12:51:05.089Z,2.10
2024-02-02T12:52:05.076Z,2.10
2024-02-02T12:53:05.076Z,1.90
2024-02-02T12:54:05.106Z,2.10
2024-02-02T12:55:05.062Z,2.20
2024-02-02T12:56:05.026Z,2.10
2024-02-02T12:57:05.052Z,2.00
2024-02-02T13:01:16.587Z,2.30
2024-02-02T13:02:17.446Z,2.20
2024-02-02T13:03:17.507Z,2.40
2024-02-02T13:04:17.500Z,2.00
2024-02-02T13:05:17.422Z,2.00
2024-02-02T13:06:17.496Z,2.30
2024-02-02T13:07:17.421Z,2.20
2024-02-02T13:08:17.361Z,2.30
2024-02-02T13:09:17.350Z,2.40
2024-02-02T13:10:17.308Z,2.10
2024-02-02T13:11:17.312Z,2.20
2024-02-02T13:12:17.340Z,2.10
2024-02-02T13:13:17.297Z,2.00
2024-02-02T13:14:17.313Z,2.00
2024-02-02T13:15:17.339Z,1.90
2024-02-02T13:16:17.243Z,2.10
2024-02-02T13:17:17.367Z,1.90
2024-02-02T13:18:17.302Z,2.10
2024-02-02T13:19:17.273Z,2.00
2024-02-02T13:20:17.210Z,2.10
2024-02-02T13:21:17.237Z,2.00